KGLW/GLW METAR and TAF weather

Enter ICAO airport designator
Station Type Date Time Source
KGLW METAR 2019/02/17 07:55 UTC NOAA

KGLW 170755Z AUTO 07004KT 10SM OVC015 03/01 A2981 RMK AO2 T00280009


Station Type Date Time Source
KGLW Decoded METAR 2019/02/17 07:55 UTC NOAA

Glasgow, Glasgow Municipal Airport, KY, United States (KGLW) 37-01-54N 085-57-13W
Feb 17, 2019 - 02:55 AM EST / 2019.02.17 0755 UTC
Wind: from the ENE (070 degrees) at 5 MPH (4 KT):0
Visibility: 10 mile(s):0
Sky conditions: overcast
Temperature: 37.0 F (2.8 C)
Dew Point: 33.6 F (0.9 C)
Relative Humidity: 87%
Pressure (altimeter): 29.81 in. Hg (1009 hPa)
ob: KGLW 170755Z AUTO 07004KT 10SM OVC015 03/01 A2981 RMK AO2 T00280009
cycle: 8

Station Type Date Time Source
KGLW TAF UTC NOAA

Error!


Example: see airport list